Pagina principale
METAR-TAF:

METAR-TAF

Aeroporti :

Costantina, Algeria

Aeroporto di Costantina-Mohamed Boudiaf

latitudine: 36-17N, longitudine: 006-37E, altezza: 694 m

Osservazione

Il bollettino è stato emesso 36 minuti fa, alle 12:30 UTC
Vento 9 kt da ovest/sud-ovest
Temperature 13°C
Umidità 62%
Pressione 1026 hPa
Visibilità 10 km o più
nessuna nube inferiore a 1500 m e nessun cumulonembo

METAR: DABC 161230Z 25009KT CAVOK 13/06 Q1026

Ora: 14:06 (13:06 UTC)

Previsione

Il bollettino è stato emesso 2 ore e 6 minuti fa, alle 11:00 UTC
Previsione valida dal 16 alle 12 UTC al 17 alle 12 UTC
Vento 8 kt da ovest
Visibilità 10 km o più
Poco nuvoloso ad un'altezza di 3000 ft
Evoluzione graduale
dal 16 alle 18 UTC al 16 alle 20 UTC
Vento 6 kt da sud/sud-ovest
Evoluzione graduale
dal 17 alle 08 UTC al 17 alle 10 UTC
Vento 10 kt da nord/nord-ovest

TAF: DABC 161100Z 1612/1712 28008KT 9999 FEW030 BECMG 1618/1620 20006KT BECMG 1708/1710 33010KT

Osservazioni e previsioni meteorologiche di più di 4000 aeroporti (messaggi METAR e TAF).

Le stazioni disponibili sono rappresentate dai dischi gialli e rossi sulla carta.

Puntare il mouse per vedere il nome della stazione.

Clicca sopra per visualizzare le osservazioni e previsioni meteorologiche.

Per cambiare la mappa : fare clic sui pulsanti verdi con una croce nera per ingrandire, il pulsante verde con un trattino per diminuire, o sulla freccia verde per le mappe adiacenti.


METAR-TAF: